sensor_id;sensor_type;location;lat;lon;timestamp;temperature;humidity
50758;DHT22;36732;47.980;11.652;2023-04-07T00:01:24;8.60;46.40
50758;DHT22;36732;47.980;11.652;2023-04-07T00:03:50;8.60;46.50
50758;DHT22;36732;47.980;11.652;2023-04-07T00:06:16;8.70;46.50
50758;DHT22;36732;47.980;11.652;2023-04-07T00:08:42;8.70;46.40
50758;DHT22;36732;47.980;11.652;2023-04-07T00:11:08;8.60;46.20
50758;DHT22;36732;47.980;11.652;2023-04-07T00:13:33;8.60;46.30
50758;DHT22;36732;47.980;11.652;2023-04-07T00:15:59;8.60;46.20
50758;DHT22;36732;47.980;11.652;2023-04-07T00:18:25;8.60;46.20
50758;DHT22;36732;47.980;11.652;2023-04-07T00:20:50;8.60;46.10
50758;DHT22;36732;47.980;11.652;2023-04-07T00:23:16;8.60;46.10
50758;DHT22;36732;47.980;11.652;2023-04-07T00:25:42;8.60;46.00
50758;DHT22;36732;47.980;11.652;2023-04-07T00:28:08;8.60;46.00
50758;DHT22;36732;47.980;11.652;2023-04-07T00:30:33;8.60;46.10
50758;DHT22;36732;47.980;11.652;2023-04-07T00:32:59;8.60;45.90
50758;DHT22;36732;47.980;11.652;2023-04-07T00:35:25;8.60;46.00
50758;DHT22;36732;47.980;11.652;2023-04-07T00:37:51;8.60;45.70
50758;DHT22;36732;47.980;11.652;2023-04-07T00:40:16;8.60;45.70
50758;DHT22;36732;47.980;11.652;2023-04-07T00:42:42;8.60;45.70
50758;DHT22;36732;47.980;11.652;2023-04-07T00:45:08;8.60;45.80
50758;DHT22;36732;47.980;11.652;2023-04-07T00:47:35;8.60;45.70
50758;DHT22;36732;47.980;11.652;2023-04-07T00:50:03;8.60;45.60
50758;DHT22;36732;47.980;11.652;2023-04-07T00:52:31;8.60;45.80
50758;DHT22;36732;47.980;11.652;2023-04-07T00:54:58;8.60;45.80
50758;DHT22;36732;47.980;11.652;2023-04-07T00:57:24;8.60;45.80
50758;DHT22;36732;47.980;11.652;2023-04-07T00:59:51;8.60;45.70
50758;DHT22;36732;47.980;11.652;2023-04-07T01:02:30;8.60;45.70
50758;DHT22;36732;47.980;11.652;2023-04-07T01:05:06;8.60;45.80
50758;DHT22;36732;47.980;11.652;2023-04-07T01:10:51;8.60;45.60
50758;DHT22;36732;47.980;11.652;2023-04-07T01:15:54;8.60;45.70
50758;DHT22;36732;47.980;11.652;2023-04-07T01:18:30;8.60;45.70
50758;DHT22;36732;47.980;11.652;2023-04-07T01:21:02;8.60;45.80
50758;DHT22;36732;47.980;11.652;2023-04-07T01:26:20;8.60;45.80
50758;DHT22;36732;47.980;11.652;2023-04-07T01:31:54;8.60;45.70
50758;DHT22;36732;47.980;11.652;2023-04-07T01:34:23;8.60;45.80
50758;DHT22;36732;47.980;11.652;2023-04-07T01:36:51;8.60;45.80
50758;DHT22;36732;47.980;11.652;2023-04-07T01:39:18;8.60;45.90
50758;DHT22;36732;47.980;11.652;2023-04-07T01:41:45;8.60;45.90
50758;DHT22;36732;47.980;11.652;2023-04-07T01:44:11;8.60;45.90
50758;DHT22;36732;47.980;11.652;2023-04-07T01:46:38;8.60;46.00
50758;DHT22;36732;47.980;11.652;2023-04-07T01:49:04;8.60;45.90
50758;DHT22;36732;47.980;11.652;2023-04-07T01:51:31;8.60;45.90
50758;DHT22;36732;47.980;11.652;2023-04-07T01:53:58;8.60;45.90
50758;DHT22;36732;47.980;11.652;2023-04-07T01:56:26;8.60;45.90
50758;DHT22;36732;47.980;11.652;2023-04-07T01:58:51;8.60;45.90
50758;DHT22;36732;47.980;11.652;2023-04-07T02:01:17;8.60;45.90
50758;DHT22;36732;47.980;11.652;2023-04-07T02:03:48;8.60;45.90
50758;DHT22;36732;47.980;11.652;2023-04-07T02:06:21;8.60;46.00
50758;DHT22;36732;47.980;11.652;2023-04-07T02:08:54;8.50;45.90
50758;DHT22;36732;47.980;11.652;2023-04-07T02:11:23;8.60;46.10
50758;DHT22;36732;47.980;11.652;2023-04-07T02:13:52;8.60;46.00
50758;DHT22;36732;47.980;11.652;2023-04-07T02:16:19;8.60;46.10
50758;DHT22;36732;47.980;11.652;2023-04-07T02:18:46;8.60;46.10
50758;DHT22;36732;47.980;11.652;2023-04-07T02:21:14;8.50;46.00
50758;DHT22;36732;47.980;11.652;2023-04-07T02:23:40;8.50;46.20
50758;DHT22;36732;47.980;11.652;2023-04-07T02:26:06;8.50;46.30
50758;DHT22;36732;47.980;11.652;2023-04-07T02:28:32;8.60;46.40
50758;DHT22;36732;47.980;11.652;2023-04-07T02:30:58;8.50;46.50
50758;DHT22;36732;47.980;11.652;2023-04-07T02:33:23;8.50;46.70
50758;DHT22;36732;47.980;11.652;2023-04-07T02:35:49;8.50;47.00
50758;DHT22;36732;47.980;11.652;2023-04-07T02:38:15;8.60;47.20
50758;DHT22;36732;47.980;11.652;2023-04-07T02:40:41;8.50;47.20
50758;DHT22;36732;47.980;11.652;2023-04-07T02:43:06;8.60;47.40
50758;DHT22;36732;47.980;11.652;2023-04-07T02:45:32;8.60;47.50
50758;DHT22;36732;47.980;11.652;2023-04-07T02:47:58;8.60;47.70
50758;DHT22;36732;47.980;11.652;2023-04-07T02:50:23;8.50;47.70
50758;DHT22;36732;47.980;11.652;2023-04-07T02:52:50;8.50;47.90
50758;DHT22;36732;47.980;11.652;2023-04-07T02:55:16;8.50;48.10
50758;DHT22;36732;47.980;11.652;2023-04-07T02:57:42;8.60;48.40
50758;DHT22;36732;47.980;11.652;2023-04-07T03:00:09;8.60;48.60
50758;DHT22;36732;47.980;11.652;2023-04-07T03:02:35;8.60;48.80
50758;DHT22;36732;47.980;11.652;2023-04-07T03:05:01;8.60;49.00
50758;DHT22;36732;47.980;11.652;2023-04-07T03:07:28;8.60;49.20
50758;DHT22;36732;47.980;11.652;2023-04-07T03:09:56;8.60;49.30
50758;DHT22;36732;47.980;11.652;2023-04-07T03:12:22;8.60;49.50
50758;DHT22;36732;47.980;11.652;2023-04-07T03:14:47;8.60;49.70
50758;DHT22;36732;47.980;11.652;2023-04-07T03:17:13;8.60;49.80
50758;DHT22;36732;47.980;11.652;2023-04-07T03:19:39;8.70;49.90
50758;DHT22;36732;47.980;11.652;2023-04-07T03:22:05;8.60;49.90
50758;DHT22;36732;47.980;11.652;2023-04-07T03:24:31;8.70;50.10
50758;DHT22;36732;47.980;11.652;2023-04-07T03:26:56;8.70;50.20
50758;DHT22;36732;47.980;11.652;2023-04-07T03:29:22;8.70;50.30
50758;DHT22;36732;47.980;11.652;2023-04-07T03:31:48;8.70;50.20
50758;DHT22;36732;47.980;11.652;2023-04-07T03:34:14;8.70;50.30
50758;DHT22;36732;47.980;11.652;2023-04-07T03:36:40;8.70;50.30
50758;DHT22;36732;47.980;11.652;2023-04-07T03:39:05;8.70;50.50
50758;DHT22;36732;47.980;11.652;2023-04-07T03:41:31;8.70;50.50
50758;DHT22;36732;47.980;11.652;2023-04-07T03:43:57;8.70;50.60
50758;DHT22;36732;47.980;11.652;2023-04-07T03:46:23;8.70;50.70
50758;DHT22;36732;47.980;11.652;2023-04-07T03:48:51;8.70;50.80
50758;DHT22;36732;47.980;11.652;2023-04-07T03:51:17;8.70;50.90
50758;DHT22;36732;47.980;11.652;2023-04-07T03:53:43;8.70;51.10
50758;DHT22;36732;47.980;11.652;2023-04-07T03:56:09;8.70;51.20
50758;DHT22;36732;47.980;11.652;2023-04-07T03:58:35;8.70;51.20
50758;DHT22;36732;47.980;11.652;2023-04-07T04:01:01;8.70;51.40
50758;DHT22;36732;47.980;11.652;2023-04-07T04:03:27;8.70;51.50
50758;DHT22;36732;47.980;11.652;2023-04-07T04:05:53;8.70;52.20
50758;DHT22;36732;47.980;11.652;2023-04-07T04:08:19;8.70;51.60
50758;DHT22;36732;47.980;11.652;2023-04-07T04:10:45;8.70;51.70
50758;DHT22;36732;47.980;11.652;2023-04-07T04:13:10;8.70;51.70
50758;DHT22;36732;47.980;11.652;2023-04-07T04:15:36;8.70;51.70
50758;DHT22;36732;47.980;11.652;2023-04-07T04:18:02;8.70;51.80
50758;DHT22;36732;47.980;11.652;2023-04-07T04:20:28;8.70;51.90
50758;DHT22;36732;47.980;11.652;2023-04-07T04:22:53;8.70;52.00
50758;DHT22;36732;47.980;11.652;2023-04-07T04:25:19;8.70;52.00
50758;DHT22;36732;47.980;11.652;2023-04-07T04:27:45;8.70;52.00
50758;DHT22;36732;47.980;11.652;2023-04-07T04:30:11;8.70;52.10
50758;DHT22;36732;47.980;11.652;2023-04-07T04:32:36;8.70;52.20
50758;DHT22;36732;47.980;11.652;2023-04-07T04:35:02;8.70;52.20
50758;DHT22;36732;47.980;11.652;2023-04-07T04:37:28;8.70;52.30
50758;DHT22;36732;47.980;11.652;2023-04-07T04:39:54;8.70;52.30
50758;DHT22;36732;47.980;11.652;2023-04-07T04:42:19;8.70;52.50
50758;DHT22;36732;47.980;11.652;2023-04-07T04:44:45;8.70;52.30
50758;DHT22;36732;47.980;11.652;2023-04-07T04:47:11;8.70;52.40
50758;DHT22;36732;47.980;11.652;2023-04-07T04:49:37;8.70;52.50
50758;DHT22;36732;47.980;11.652;2023-04-07T04:52:03;8.70;52.60
50758;DHT22;36732;47.980;11.652;2023-04-07T04:54:28;8.70;52.60
50758;DHT22;36732;47.980;11.652;2023-04-07T04:56:54;8.70;52.70
50758;DHT22;36732;47.980;11.652;2023-04-07T04:59:22;8.70;52.70
50758;DHT22;36732;47.980;11.652;2023-04-07T05:01:47;8.70;52.70
50758;DHT22;36732;47.980;11.652;2023-04-07T05:04:13;8.70;52.70
50758;DHT22;36732;47.980;11.652;2023-04-07T05:06:39;8.70;52.80
50758;DHT22;36732;47.980;11.652;2023-04-07T05:09:04;8.70;53.10
50758;DHT22;36732;47.980;11.652;2023-04-07T05:11:30;8.70;53.00
50758;DHT22;36732;47.980;11.652;2023-04-07T05:13:56;8.70;53.10
50758;DHT22;36732;47.980;11.652;2023-04-07T05:16:21;8.70;53.20
50758;DHT22;36732;47.980;11.652;2023-04-07T05:18:47;8.70;53.30
50758;DHT22;36732;47.980;11.652;2023-04-07T05:21:13;8.70;53.40
50758;DHT22;36732;47.980;11.652;2023-04-07T05:23:38;8.70;53.50
50758;DHT22;36732;47.980;11.652;2023-04-07T05:26:04;8.70;53.60
50758;DHT22;36732;47.980;11.652;2023-04-07T05:28:30;8.70;53.80
50758;DHT22;36732;47.980;11.652;2023-04-07T05:30:56;8.70;53.90
50758;DHT22;36732;47.980;11.652;2023-04-07T05:33:22;8.70;54.00
50758;DHT22;36732;47.980;11.652;2023-04-07T05:35:47;8.70;54.00
50758;DHT22;36732;47.980;11.652;2023-04-07T05:38:13;8.70;54.00
50758;DHT22;36732;47.980;11.652;2023-04-07T05:40:40;8.70;54.00
50758;DHT22;36732;47.980;11.652;2023-04-07T05:43:06;8.70;54.00
50758;DHT22;36732;47.980;11.652;2023-04-07T05:45:32;8.70;54.20
50758;DHT22;36732;47.980;11.652;2023-04-07T05:47:58;8.70;54.20
50758;DHT22;36732;47.980;11.652;2023-04-07T05:50:23;8.70;54.30
50758;DHT22;36732;47.980;11.652;2023-04-07T05:52:49;8.70;54.40
50758;DHT22;36732;47.980;11.652;2023-04-07T05:55:15;8.70;54.50
50758;DHT22;36732;47.980;11.652;2023-04-07T05:57:41;8.70;54.50
50758;DHT22;36732;47.980;11.652;2023-04-07T06:00:07;8.70;54.40
50758;DHT22;36732;47.980;11.652;2023-04-07T06:02:34;8.70;54.50
50758;DHT22;36732;47.980;11.652;2023-04-07T06:05:00;8.70;54.60
50758;DHT22;36732;47.980;11.652;2023-04-07T06:07:25;8.70;54.80
50758;DHT22;36732;47.980;11.652;2023-04-07T06:09:51;8.70;54.80
50758;DHT22;36732;47.980;11.652;2023-04-07T06:12:17;8.70;54.90
50758;DHT22;36732;47.980;11.652;2023-04-07T06:14:45;8.70;54.80
50758;DHT22;36732;47.980;11.652;2023-04-07T06:17:15;8.70;55.00
50758;DHT22;36732;47.980;11.652;2023-04-07T06:19:41;8.70;55.00
50758;DHT22;36732;47.980;11.652;2023-04-07T06:22:06;8.70;55.10
50758;DHT22;36732;47.980;11.652;2023-04-07T06:24:32;8.80;55.20
50758;DHT22;36732;47.980;11.652;2023-04-07T06:26:59;8.70;55.20
50758;DHT22;36732;47.980;11.652;2023-04-07T06:29:25;8.70;55.20
50758;DHT22;36732;47.980;11.652;2023-04-07T06:31:51;8.80;55.30
50758;DHT22;36732;47.980;11.652;2023-04-07T06:34:17;8.80;55.30
50758;DHT22;36732;47.980;11.652;2023-04-07T06:36:43;8.80;55.40
50758;DHT22;36732;47.980;11.652;2023-04-07T06:39:09;8.80;55.30
50758;DHT22;36732;47.980;11.652;2023-04-07T06:41:34;8.80;55.20
50758;DHT22;36732;47.980;11.652;2023-04-07T06:44:00;8.80;55.10
50758;DHT22;36732;47.980;11.652;2023-04-07T06:46:26;8.80;55.00
50758;DHT22;36732;47.980;11.652;2023-04-07T06:48:52;8.80;54.90
50758;DHT22;36732;47.980;11.652;2023-04-07T06:51:18;8.80;55.10
50758;DHT22;36732;47.980;11.652;2023-04-07T06:53:44;8.80;55.20
50758;DHT22;36732;47.980;11.652;2023-04-07T06:56:11;8.80;55.00
50758;DHT22;36732;47.980;11.652;2023-04-07T06:58:37;8.80;54.90
50758;DHT22;36732;47.980;11.652;2023-04-07T07:01:04;8.80;55.00
50758;DHT22;36732;47.980;11.652;2023-04-07T07:03:31;8.80;55.00
50758;DHT22;36732;47.980;11.652;2023-04-07T07:06:00;8.80;55.50
50758;DHT22;36732;47.980;11.652;2023-04-07T07:08:27;8.80;55.10
50758;DHT22;36732;47.980;11.652;2023-04-07T07:10:53;8.80;55.10
50758;DHT22;36732;47.980;11.652;2023-04-07T07:13:21;8.80;55.10
50758;DHT22;36732;47.980;11.652;2023-04-07T07:15:50;8.90;55.20
50758;DHT22;36732;47.980;11.652;2023-04-07T07:18:16;8.90;55.30
50758;DHT22;36732;47.980;11.652;2023-04-07T07:20:42;8.80;55.20
50758;DHT22;36732;47.980;11.652;2023-04-07T07:23:08;8.90;55.80
50758;DHT22;36732;47.980;11.652;2023-04-07T07:25:34;8.80;55.10
50758;DHT22;36732;47.980;11.652;2023-04-07T07:27:59;8.90;55.30
50758;DHT22;36732;47.980;11.652;2023-04-07T07:30:25;8.90;55.30
50758;DHT22;36732;47.980;11.652;2023-04-07T07:32:52;8.90;55.40
50758;DHT22;36732;47.980;11.652;2023-04-07T07:35:19;8.90;55.40
50758;DHT22;36732;47.980;11.652;2023-04-07T07:37:45;8.90;55.30
50758;DHT22;36732;47.980;11.652;2023-04-07T07:40:11;8.90;55.30
50758;DHT22;36732;47.980;11.652;2023-04-07T07:42:37;8.90;55.30
50758;DHT22;36732;47.980;11.652;2023-04-07T07:45:03;8.90;55.30
50758;DHT22;36732;47.980;11.652;2023-04-07T07:47:30;9.00;55.40
50758;DHT22;36732;47.980;11.652;2023-04-07T07:49:56;8.90;55.40
50758;DHT22;36732;47.980;11.652;2023-04-07T07:52:21;9.00;55.60
50758;DHT22;36732;47.980;11.652;2023-04-07T07:54:48;9.00;55.60
50758;DHT22;36732;47.980;11.652;2023-04-07T07:57:14;9.00;55.60
50758;DHT22;36732;47.980;11.652;2023-04-07T07:59:40;9.00;55.50
50758;DHT22;36732;47.980;11.652;2023-04-07T08:02:06;9.00;55.50
50758;DHT22;36732;47.980;11.652;2023-04-07T08:04:33;9.10;55.60
50758;DHT22;36732;47.980;11.652;2023-04-07T08:06:59;9.10;55.60
50758;DHT22;36732;47.980;11.652;2023-04-07T08:09:25;9.10;55.50
50758;DHT22;36732;47.980;11.652;2023-04-07T08:11:51;9.10;55.40
50758;DHT22;36732;47.980;11.652;2023-04-07T08:14:17;9.10;55.30
50758;DHT22;36732;47.980;11.652;2023-04-07T08:16:44;9.10;55.10
50758;DHT22;36732;47.980;11.652;2023-04-07T08:19:10;9.20;55.20
50758;DHT22;36732;47.980;11.652;2023-04-07T08:21:36;9.20;55.10
50758;DHT22;36732;47.980;11.652;2023-04-07T08:24:02;9.20;55.10
50758;DHT22;36732;47.980;11.652;2023-04-07T08:26:28;9.20;55.00
50758;DHT22;36732;47.980;11.652;2023-04-07T08:28:53;9.20;55.00
50758;DHT22;36732;47.980;11.652;2023-04-07T08:31:20;9.20;54.80
50758;DHT22;36732;47.980;11.652;2023-04-07T08:33:46;9.20;54.80
50758;DHT22;36732;47.980;11.652;2023-04-07T08:36:12;9.20;54.90
50758;DHT22;36732;47.980;11.652;2023-04-07T08:38:37;9.20;55.00
50758;DHT22;36732;47.980;11.652;2023-04-07T08:41:07;9.30;54.90
50758;DHT22;36732;47.980;11.652;2023-04-07T08:43:38;9.30;55.00
50758;DHT22;36732;47.980;11.652;2023-04-07T08:46:04;9.30;54.90
50758;DHT22;36732;47.980;11.652;2023-04-07T08:48:31;9.30;54.80
50758;DHT22;36732;47.980;11.652;2023-04-07T08:51:04;9.30;54.80
50758;DHT22;36732;47.980;11.652;2023-04-07T08:53:40;9.40;55.00
50758;DHT22;36732;47.980;11.652;2023-04-07T08:56:11;9.40;54.90
50758;DHT22;36732;47.980;11.652;2023-04-07T08:58:37;9.40;55.00
50758;DHT22;36732;47.980;11.652;2023-04-07T09:01:04;9.40;54.90
50758;DHT22;36732;47.980;11.652;2023-04-07T09:03:32;9.50;54.80
50758;DHT22;36732;47.980;11.652;2023-04-07T09:05:59;9.50;54.80
50758;DHT22;36732;47.980;11.652;2023-04-07T09:08:26;9.50;54.60
50758;DHT22;36732;47.980;11.652;2023-04-07T09:10:53;9.50;54.50
50758;DHT22;36732;47.980;11.652;2023-04-07T09:13:19;9.50;54.50
50758;DHT22;36732;47.980;11.652;2023-04-07T09:15:45;9.50;54.60
50758;DHT22;36732;47.980;11.652;2023-04-07T09:18:11;9.60;54.70
50758;DHT22;36732;47.980;11.652;2023-04-07T09:20:56;9.60;54.70
50758;DHT22;36732;47.980;11.652;2023-04-07T09:23:39;9.60;54.70
50758;DHT22;36732;47.980;11.652;2023-04-07T09:26:23;9.70;54.50
50758;DHT22;36732;47.980;11.652;2023-04-07T09:28:56;9.70;54.50
50758;DHT22;36732;47.980;11.652;2023-04-07T09:31:46;9.70;54.30
50758;DHT22;36732;47.980;11.652;2023-04-07T09:34:27;9.70;54.00
50758;DHT22;36732;47.980;11.652;2023-04-07T09:37:04;9.70;54.00
50758;DHT22;36732;47.980;11.652;2023-04-07T09:39:31;9.80;54.00
50758;DHT22;36732;47.980;11.652;2023-04-07T09:41:57;9.80;53.80
50758;DHT22;36732;47.980;11.652;2023-04-07T09:44:24;9.80;53.70
50758;DHT22;36732;47.980;11.652;2023-04-07T09:46:55;9.80;53.60
50758;DHT22;36732;47.980;11.652;2023-04-07T09:49:25;9.90;53.30
50758;DHT22;36732;47.980;11.652;2023-04-07T09:52:02;9.90;53.30
50758;DHT22;36732;47.980;11.652;2023-04-07T09:57:03;9.90;54.30
50758;DHT22;36732;47.980;11.652;2023-04-07T09:59:31;10.00;53.90
50758;DHT22;36732;47.980;11.652;2023-04-07T10:01:58;10.00;53.50
50758;DHT22;36732;47.980;11.652;2023-04-07T10:04:24;10.00;53.40
50758;DHT22;36732;47.980;11.652;2023-04-07T10:06:54;10.00;53.40
50758;DHT22;36732;47.980;11.652;2023-04-07T10:09:22;10.00;53.30
50758;DHT22;36732;47.980;11.652;2023-04-07T10:11:51;10.10;53.20
50758;DHT22;36732;47.980;11.652;2023-04-07T10:14:18;10.10;53.10
50758;DHT22;36732;47.980;11.652;2023-04-07T10:16:46;10.10;53.10
50758;DHT22;36732;47.980;11.652;2023-04-07T10:19:13;10.10;53.10
50758;DHT22;36732;47.980;11.652;2023-04-07T10:21:41;10.20;53.20
50758;DHT22;36732;47.980;11.652;2023-04-07T10:27:23;10.20;53.00
50758;DHT22;36732;47.980;11.652;2023-04-07T10:29:54;10.20;53.20
50758;DHT22;36732;47.980;11.652;2023-04-07T10:32:22;10.20;53.20
50758;DHT22;36732;47.980;11.652;2023-04-07T10:37:20;10.20;53.10
50758;DHT22;36732;47.980;11.652;2023-04-07T10:39:48;10.30;53.20
50758;DHT22;36732;47.980;11.652;2023-04-07T10:42:43;10.30;53.40
50758;DHT22;36732;47.980;11.652;2023-04-07T10:45:11;10.30;53.90
50758;DHT22;36732;47.980;11.652;2023-04-07T10:48:10;10.40;54.10
50758;DHT22;36732;47.980;11.652;2023-04-07T10:50:39;10.40;54.40
50758;DHT22;36732;47.980;11.652;2023-04-07T10:53:08;10.40;53.70
50758;DHT22;36732;47.980;11.652;2023-04-07T10:55:38;10.40;53.60
50758;DHT22;36732;47.980;11.652;2023-04-07T10:58:26;10.50;53.60
50758;DHT22;36732;47.980;11.652;2023-04-07T11:03:56;10.50;53.20
50758;DHT22;36732;47.980;11.652;2023-04-07T11:06:23;10.60;53.20
50758;DHT22;36732;47.980;11.652;2023-04-07T11:08:49;10.60;53.00
50758;DHT22;36732;47.980;11.652;2023-04-07T11:11:37;10.60;53.10
50758;DHT22;36732;47.980;11.652;2023-04-07T11:14:03;10.60;52.90
50758;DHT22;36732;47.980;11.652;2023-04-07T11:16:36;10.60;52.90
50758;DHT22;36732;47.980;11.652;2023-04-07T11:19:04;10.60;52.60
50758;DHT22;36732;47.980;11.652;2023-04-07T11:21:29;10.60;52.40
50758;DHT22;36732;47.980;11.652;2023-04-07T11:23:55;10.70;52.50
50758;DHT22;36732;47.980;11.652;2023-04-07T11:26:21;10.60;52.60
50758;DHT22;36732;47.980;11.652;2023-04-07T11:28:53;10.70;52.60
50758;DHT22;36732;47.980;11.652;2023-04-07T11:31:29;10.60;52.70
50758;DHT22;36732;47.980;11.652;2023-04-07T11:34:01;10.70;52.60
50758;DHT22;36732;47.980;11.652;2023-04-07T11:36:39;10.70;53.00
50758;DHT22;36732;47.980;11.652;2023-04-07T11:39:17;10.70;52.90
50758;DHT22;36732;47.980;11.652;2023-04-07T11:41:47;10.70;52.60
50758;DHT22;36732;47.980;11.652;2023-04-07T11:44:13;10.70;53.40
50758;DHT22;36732;47.980;11.652;2023-04-07T11:46:57;10.70;53.30
50758;DHT22;36732;47.980;11.652;2023-04-07T11:49:27;10.70;52.80
50758;DHT22;36732;47.980;11.652;2023-04-07T11:52:04;10.80;52.90
50758;DHT22;36732;47.980;11.652;2023-04-07T11:54:41;10.80;52.50
50758;DHT22;36732;47.980;11.652;2023-04-07T11:57:11;10.80;52.30
50758;DHT22;36732;47.980;11.652;2023-04-07T11:59:38;10.80;52.40
50758;DHT22;36732;47.980;11.652;2023-04-07T12:02:05;10.80;52.50
50758;DHT22;36732;47.980;11.652;2023-04-07T12:04:31;10.80;52.10
50758;DHT22;36732;47.980;11.652;2023-04-07T12:07:06;10.80;52.20
50758;DHT22;36732;47.980;11.652;2023-04-07T12:09:34;10.80;52.20
50758;DHT22;36732;47.980;11.652;2023-04-07T12:12:06;10.80;52.20
50758;DHT22;36732;47.980;11.652;2023-04-07T12:14:33;10.80;52.20
50758;DHT22;36732;47.980;11.652;2023-04-07T12:16:59;10.90;52.10
50758;DHT22;36732;47.980;11.652;2023-04-07T12:19:28;10.90;52.00
50758;DHT22;36732;47.980;11.652;2023-04-07T12:21:57;10.90;52.30
50758;DHT22;36732;47.980;11.652;2023-04-07T12:24:23;10.90;52.30
50758;DHT22;36732;47.980;11.652;2023-04-07T12:26:48;10.90;52.20
50758;DHT22;36732;47.980;11.652;2023-04-07T12:29:15;11.00;51.90
50758;DHT22;36732;47.980;11.652;2023-04-07T12:31:41;11.00;51.90
50758;DHT22;36732;47.980;11.652;2023-04-07T12:34:08;11.00;52.10
50758;DHT22;36732;47.980;11.652;2023-04-07T12:36:34;11.00;52.00
50758;DHT22;36732;47.980;11.652;2023-04-07T12:39:00;11.00;52.00
50758;DHT22;36732;47.980;11.652;2023-04-07T12:41:26;11.00;52.00
50758;DHT22;36732;47.980;11.652;2023-04-07T12:43:52;11.00;51.80
50758;DHT22;36732;47.980;11.652;2023-04-07T12:46:18;11.00;51.90
50758;DHT22;36732;47.980;11.652;2023-04-07T12:48:44;11.00;51.90
50758;DHT22;36732;47.980;11.652;2023-04-07T12:51:10;11.00;51.70
50758;DHT22;36732;47.980;11.652;2023-04-07T12:53:36;11.00;51.70
50758;DHT22;36732;47.980;11.652;2023-04-07T12:56:01;11.00;51.70
50758;DHT22;36732;47.980;11.652;2023-04-07T12:58:27;11.10;51.90
50758;DHT22;36732;47.980;11.652;2023-04-07T13:00:53;11.10;51.90
50758;DHT22;36732;47.980;11.652;2023-04-07T13:03:19;11.00;52.00
50758;DHT22;36732;47.980;11.652;2023-04-07T13:05:44;11.10;51.90
50758;DHT22;36732;47.980;11.652;2023-04-07T13:08:10;11.00;51.80
50758;DHT22;36732;47.980;11.652;2023-04-07T13:10:36;11.10;51.70
50758;DHT22;36732;47.980;11.652;2023-04-07T13:13:02;11.10;51.60
50758;DHT22;36732;47.980;11.652;2023-04-07T13:15:28;11.10;51.50
50758;DHT22;36732;47.980;11.652;2023-04-07T13:17:53;11.10;51.60
50758;DHT22;36732;47.980;11.652;2023-04-07T13:20:20;11.10;51.50
50758;DHT22;36732;47.980;11.652;2023-04-07T13:22:46;11.10;51.40
50758;DHT22;36732;47.980;11.652;2023-04-07T13:25:12;11.10;51.40
50758;DHT22;36732;47.980;11.652;2023-04-07T13:27:41;11.10;51.40
50758;DHT22;36732;47.980;11.652;2023-04-07T13:30:07;11.10;51.50
50758;DHT22;36732;47.980;11.652;2023-04-07T13:32:32;11.20;51.50
50758;DHT22;36732;47.980;11.652;2023-04-07T13:34:58;11.10;51.50
50758;DHT22;36732;47.980;11.652;2023-04-07T13:37:24;11.10;51.50
50758;DHT22;36732;47.980;11.652;2023-04-07T13:39:51;11.20;51.60
50758;DHT22;36732;47.980;11.652;2023-04-07T13:42:17;11.10;51.30
50758;DHT22;36732;47.980;11.652;2023-04-07T13:44:44;11.20;51.20
50758;DHT22;36732;47.980;11.652;2023-04-07T13:47:12;11.10;51.90
50758;DHT22;36732;47.980;11.652;2023-04-07T13:49:44;11.20;51.10
50758;DHT22;36732;47.980;11.652;2023-04-07T13:52:11;11.20;51.20
50758;DHT22;36732;47.980;11.652;2023-04-07T13:54:37;11.20;51.10
50758;DHT22;36732;47.980;11.652;2023-04-07T13:57:03;11.20;51.10
50758;DHT22;36732;47.980;11.652;2023-04-07T13:59:29;11.20;51.10
50758;DHT22;36732;47.980;11.652;2023-04-07T14:01:55;11.20;51.20
50758;DHT22;36732;47.980;11.652;2023-04-07T14:04:21;11.20;51.20
50758;DHT22;36732;47.980;11.652;2023-04-07T14:06:47;11.20;51.20
50758;DHT22;36732;47.980;11.652;2023-04-07T14:09:13;11.20;51.20
50758;DHT22;36732;47.980;11.652;2023-04-07T14:11:38;11.20;51.40
50758;DHT22;36732;47.980;11.652;2023-04-07T14:14:04;11.20;51.30
50758;DHT22;36732;47.980;11.652;2023-04-07T14:16:31;11.20;51.50
50758;DHT22;36732;47.980;11.652;2023-04-07T14:18:56;11.30;51.50
50758;DHT22;36732;47.980;11.652;2023-04-07T14:21:23;11.30;51.60
50758;DHT22;36732;47.980;11.652;2023-04-07T14:23:48;11.30;51.40
50758;DHT22;36732;47.980;11.652;2023-04-07T14:26:15;11.30;51.60
50758;DHT22;36732;47.980;11.652;2023-04-07T14:28:40;11.20;51.60
50758;DHT22;36732;47.980;11.652;2023-04-07T14:31:11;11.30;51.60
50758;DHT22;36732;47.980;11.652;2023-04-07T14:33:38;11.30;51.50
50758;DHT22;36732;47.980;11.652;2023-04-07T14:36:04;11.30;51.60
50758;DHT22;36732;47.980;11.652;2023-04-07T14:38:30;11.30;51.60
50758;DHT22;36732;47.980;11.652;2023-04-07T14:40:56;11.30;51.60
50758;DHT22;36732;47.980;11.652;2023-04-07T14:43:21;11.30;51.70
50758;DHT22;36732;47.980;11.652;2023-04-07T14:45:47;11.30;51.80
50758;DHT22;36732;47.980;11.652;2023-04-07T14:48:13;11.30;51.90
50758;DHT22;36732;47.980;11.652;2023-04-07T14:50:38;11.30;52.00
50758;DHT22;36732;47.980;11.652;2023-04-07T14:53:04;11.30;52.10
50758;DHT22;36732;47.980;11.652;2023-04-07T14:55:31;11.30;52.00
50758;DHT22;36732;47.980;11.652;2023-04-07T14:57:56;11.30;51.90
50758;DHT22;36732;47.980;11.652;2023-04-07T15:00:22;11.30;51.90
50758;DHT22;36732;47.980;11.652;2023-04-07T15:02:50;11.30;51.90
50758;DHT22;36732;47.980;11.652;2023-04-07T15:05:18;11.30;51.90
50758;DHT22;36732;47.980;11.652;2023-04-07T15:07:47;11.30;51.80
50758;DHT22;36732;47.980;11.652;2023-04-07T15:10:15;11.30;51.90
50758;DHT22;36732;47.980;11.652;2023-04-07T15:12:44;11.40;52.00
50758;DHT22;36732;47.980;11.652;2023-04-07T15:15:12;11.40;52.10
50758;DHT22;36732;47.980;11.652;2023-04-07T15:17:38;11.40;52.10
50758;DHT22;36732;47.980;11.652;2023-04-07T15:20:04;11.30;52.00
50758;DHT22;36732;47.980;11.652;2023-04-07T15:22:30;11.40;52.10
50758;DHT22;36732;47.980;11.652;2023-04-07T15:24:56;11.30;52.60
50758;DHT22;36732;47.980;11.652;2023-04-07T15:27:22;11.40;52.10
50758;DHT22;36732;47.980;11.652;2023-04-07T15:29:47;11.40;52.10
50758;DHT22;36732;47.980;11.652;2023-04-07T15:32:13;11.40;52.10
50758;DHT22;36732;47.980;11.652;2023-04-07T15:34:39;11.40;52.00
50758;DHT22;36732;47.980;11.652;2023-04-07T15:37:04;11.40;52.00
50758;DHT22;36732;47.980;11.652;2023-04-07T15:39:30;11.30;51.90
50758;DHT22;36732;47.980;11.652;2023-04-07T15:41:56;11.30;52.00
50758;DHT22;36732;47.980;11.652;2023-04-07T15:44:21;11.30;51.90
50758;DHT22;36732;47.980;11.652;2023-04-07T15:46:47;11.40;52.00
50758;DHT22;36732;47.980;11.652;2023-04-07T15:49:13;11.40;52.20